createdAt,value
2018-06-19T00:01:28.974Z,19.20
2018-06-19T00:03:57.173Z,19.10
2018-06-19T00:06:25.419Z,19.10
2018-06-19T00:08:53.647Z,19.10
2018-06-19T00:11:22.086Z,19.00
2018-06-19T00:13:50.291Z,18.90
2018-06-19T00:16:18.580Z,18.90
2018-06-19T00:18:54.206Z,18.90
2018-06-19T00:21:28.027Z,18.80
2018-06-19T00:23:56.432Z,18.80
2018-06-19T00:26:24.654Z,18.80
2018-06-19T00:28:52.855Z,18.80
2018-06-19T00:31:21.434Z,18.70
2018-06-19T00:33:50.049Z,18.70
2018-06-19T00:36:18.714Z,18.60
2018-06-19T00:38:47.351Z,18.60
2018-06-19T00:41:16.266Z,18.60
2018-06-19T00:43:44.484Z,18.60
2018-06-19T00:46:13.046Z,18.50
2018-06-19T00:48:41.478Z,18.40
2018-06-19T00:51:10.395Z,18.50
2018-06-19T00:53:38.598Z,18.50
2018-06-19T00:56:18.725Z,18.40
2018-06-19T00:58:47.406Z,18.40
2018-06-19T01:03:43.894Z,18.30
2018-06-19T01:06:12.343Z,18.30
2018-06-19T01:11:09.675Z,18.20
2018-06-19T01:13:37.910Z,18.20
2018-06-19T01:16:06.150Z,18.20
2018-06-19T01:18:34.681Z,18.20
2018-06-19T01:21:03.230Z,18.10
2018-06-19T01:23:31.452Z,18.10
2018-06-19T01:25:59.669Z,18.10
2018-06-19T01:28:28.514Z,18.00
2018-06-19T01:30:56.999Z,18.00
2018-06-19T01:33:25.676Z,18.00
2018-06-19T01:35:54.251Z,18.00
2018-06-19T01:38:22.746Z,18.00
2018-06-19T01:40:51.390Z,17.90
2018-06-19T01:43:19.589Z,17.90
2018-06-19T01:45:48.198Z,17.90
2018-06-19T01:48:16.871Z,17.90
2018-06-19T01:50:45.307Z,17.90
2018-06-19T01:53:13.838Z,17.80
2018-06-19T01:55:42.422Z,17.80
2018-06-19T01:58:10.631Z,17.70
2018-06-19T02:00:39.451Z,17.70
2018-06-19T02:03:07.647Z,17.70
2018-06-19T02:05:35.870Z,17.60
2018-06-19T02:08:04.386Z,17.60
2018-06-19T02:10:32.964Z,17.60
2018-06-19T02:13:01.187Z,17.60
2018-06-19T02:15:29.411Z,17.60
2018-06-19T02:17:57.626Z,17.60
2018-06-19T02:20:26.210Z,17.60
2018-06-19T02:22:54.699Z,17.60
2018-06-19T02:25:22.902Z,17.60
2018-06-19T02:27:51.418Z,17.60
2018-06-19T02:32:48.503Z,17.60
2018-06-19T02:35:16.799Z,17.60
2018-06-19T02:37:44.999Z,17.60
2018-06-19T02:40:13.628Z,17.60
2018-06-19T02:42:41.820Z,17.60
2018-06-19T02:45:10.069Z,17.60
2018-06-19T02:47:38.246Z,17.50
2018-06-19T02:50:06.474Z,17.50
2018-06-19T02:52:34.787Z,17.50
2018-06-19T02:55:02.978Z,17.50
2018-06-19T02:57:31.176Z,17.50
2018-06-19T02:59:59.762Z,17.50
2018-06-19T03:02:28.274Z,17.40
2018-06-19T03:04:56.781Z,17.40
2018-06-19T03:07:25.011Z,17.40
2018-06-19T03:09:53.235Z,17.40
2018-06-19T03:12:21.429Z,17.30
2018-06-19T03:14:49.632Z,17.30
2018-06-19T03:17:17.875Z,17.30
2018-06-19T03:19:46.087Z,17.40
2018-06-19T03:22:14.664Z,17.40
2018-06-19T03:24:43.064Z,17.30
2018-06-19T03:27:11.678Z,17.30
2018-06-19T03:29:41.206Z,17.30
2018-06-19T03:32:10.206Z,17.30
2018-06-19T03:34:38.403Z,17.30
2018-06-19T03:37:06.902Z,17.30
2018-06-19T03:39:35.514Z,17.40
2018-06-19T03:42:04.262Z,17.40
2018-06-19T03:44:32.454Z,17.40
2018-06-19T03:47:00.643Z,17.40
2018-06-19T03:49:29.264Z,17.50
2018-06-19T03:51:57.882Z,17.50
2018-06-19T03:54:26.394Z,17.50
2018-06-19T03:56:55.020Z,17.60
2018-06-19T03:59:23.643Z,17.60
2018-06-19T04:01:52.824Z,17.60
2018-06-19T04:04:21.569Z,17.60
2018-06-19T04:06:49.787Z,17.60
2018-06-19T04:09:18.294Z,17.60
2018-06-19T04:11:46.483Z,17.70
2018-06-19T04:14:14.687Z,17.60
2018-06-19T04:16:42.891Z,17.60
2018-06-19T04:19:11.522Z,17.70
2018-06-19T04:21:39.724Z,17.70
2018-06-19T04:26:36.362Z,17.70
2018-06-19T04:29:04.689Z,17.70
2018-06-19T04:31:33.181Z,17.80
2018-06-19T04:34:02.028Z,17.80
2018-06-19T04:36:30.251Z,17.80
2018-06-19T04:38:59.175Z,17.80
2018-06-19T04:41:27.715Z,17.80
2018-06-19T04:43:56.282Z,17.90
2018-06-19T04:46:24.922Z,17.90
2018-06-19T04:48:53.106Z,17.90
2018-06-19T04:51:21.320Z,18.00
2018-06-19T04:53:49.915Z,18.10
2018-06-19T04:56:18.170Z,18.20
2018-06-19T04:58:47.757Z,18.20
2018-06-19T05:01:17.348Z,18.30
2018-06-19T05:03:45.640Z,18.40
2018-06-19T05:06:13.774Z,18.40
2018-06-19T05:08:42.130Z,18.40
2018-06-19T05:11:10.391Z,18.40
2018-06-19T05:13:39.091Z,18.50
2018-06-19T05:16:07.326Z,18.50
2018-06-19T05:18:35.827Z,18.60
2018-06-19T05:23:33.595Z,18.60
2018-06-19T05:26:02.294Z,18.60
2018-06-19T05:28:30.525Z,18.60
2018-06-19T05:30:59.139Z,18.70
2018-06-19T05:33:28.334Z,18.70
2018-06-19T05:35:56.595Z,18.70
2018-06-19T05:38:25.420Z,18.80
2018-06-19T05:40:54.394Z,18.80
2018-06-19T05:43:22.904Z,18.80
2018-06-19T05:45:51.585Z,18.80
2018-06-19T05:48:19.787Z,18.80
2018-06-19T05:50:47.995Z,18.90
2018-06-19T05:53:16.863Z,18.90
2018-06-19T05:55:45.432Z,19.00
2018-06-19T05:58:14.393Z,19.00
2018-06-19T06:00:42.582Z,19.10
2018-06-19T06:03:11.214Z,19.10
2018-06-19T06:05:40.202Z,19.10
2018-06-19T06:08:08.817Z,19.10
2018-06-19T06:10:37.463Z,19.10
2018-06-19T06:13:06.219Z,19.00
2018-06-19T06:15:34.447Z,19.00
2018-06-19T06:18:03.072Z,19.00
2018-06-19T06:20:31.269Z,19.10
2018-06-19T06:23:00.333Z,19.10
2018-06-19T06:25:28.630Z,19.10
2018-06-19T06:27:56.816Z,19.10
2018-06-19T06:30:25.327Z,19.10
2018-06-19T06:32:53.603Z,19.30
2018-06-19T06:35:23.271Z,19.40
2018-06-19T06:37:51.923Z,19.50
2018-06-19T06:40:20.407Z,19.60
2018-06-19T06:42:49.223Z,19.80
2018-06-19T06:45:17.422Z,19.90
2018-06-19T06:47:45.947Z,19.90
2018-06-19T06:50:14.623Z,20.00
2018-06-19T06:52:43.069Z,20.10
2018-06-19T06:55:11.571Z,20.20
2018-06-19T06:57:39.774Z,20.30
2018-06-19T07:00:08.094Z,20.40
2018-06-19T07:02:36.711Z,20.30
2018-06-19T07:05:05.335Z,20.30
2018-06-19T07:07:33.544Z,20.20
2018-06-19T07:10:02.167Z,20.20
2018-06-19T07:12:30.477Z,20.20
2018-06-19T07:14:59.172Z,20.20
2018-06-19T07:17:27.597Z,20.30
2018-06-19T07:19:55.791Z,20.50
2018-06-19T07:22:24.443Z,20.70
2018-06-19T07:24:53.552Z,20.80
2018-06-19T07:27:22.133Z,20.90
2018-06-19T07:29:50.353Z,20.90
2018-06-19T07:32:18.534Z,21.00
2018-06-19T07:34:46.730Z,21.00
2018-06-19T07:37:15.947Z,20.90
2018-06-19T07:39:44.974Z,20.80
2018-06-19T07:42:13.795Z,20.70
2018-06-19T07:44:41.996Z,20.70
2018-06-19T07:47:12.048Z,20.80
2018-06-19T07:49:40.615Z,21.00
2018-06-19T07:52:08.814Z,21.10
2018-06-19T07:54:37.047Z,21.20
2018-06-19T07:57:05.297Z,21.30
2018-06-19T07:59:33.674Z,21.60
2018-06-19T08:02:02.313Z,21.60
2018-06-19T08:04:30.839Z,21.90
2018-06-19T08:06:59.115Z,22.20
2018-06-19T08:09:27.302Z,22.30
2018-06-19T08:11:55.515Z,22.50
2018-06-19T08:14:23.753Z,22.50
2018-06-19T08:21:49.123Z,22.70
2018-06-19T08:24:17.987Z,23.00
2018-06-19T08:26:46.823Z,23.20
2018-06-19T08:29:15.410Z,23.40
2018-06-19T08:31:43.623Z,23.50
2018-06-19T08:34:12.098Z,23.60
2018-06-19T08:36:40.313Z,23.70
2018-06-19T08:39:11.178Z,23.80
2018-06-19T08:41:40.103Z,23.80
2018-06-19T08:44:08.639Z,23.60
2018-06-19T08:49:05.962Z,23.50
2018-06-19T08:51:34.638Z,23.50
2018-06-19T08:54:02.930Z,23.90
2018-06-19T08:56:31.160Z,23.80
2018-06-19T08:58:59.575Z,23.90
2018-06-19T09:01:27.781Z,24.10
2018-06-19T09:03:56.479Z,24.40
2018-06-19T09:06:24.754Z,24.60
2018-06-19T09:08:53.770Z,24.90
2018-06-19T09:11:21.973Z,25.10
2018-06-19T09:13:50.273Z,25.50
2018-06-19T09:16:19.011Z,26.00
2018-06-19T09:18:47.631Z,25.70
2018-06-19T09:21:16.440Z,25.10
2018-06-19T09:23:45.093Z,24.40
2018-06-19T09:26:13.711Z,24.20
2018-06-19T09:28:42.410Z,23.90
2018-06-19T09:31:10.981Z,23.80
2018-06-19T09:33:39.191Z,24.00
2018-06-19T09:36:07.410Z,24.30
2018-06-19T09:38:35.603Z,24.30
2018-06-19T09:41:04.575Z,24.00
2018-06-19T09:43:32.974Z,24.10
2018-06-19T09:48:29.982Z,24.40
2018-06-19T09:50:58.194Z,24.40
2018-06-19T09:53:26.780Z,25.20
2018-06-19T09:58:23.657Z,26.60
2018-06-19T10:00:51.867Z,26.50
2018-06-19T10:03:20.429Z,26.10
2018-06-19T10:05:49.050Z,26.20
2018-06-19T10:08:17.676Z,27.40
2018-06-19T10:10:45.861Z,26.90
2018-06-19T10:13:14.038Z,25.90
2018-06-19T10:15:43.026Z,25.60
2018-06-19T10:18:11.664Z,25.20
2018-06-19T10:20:40.324Z,25.00
2018-06-19T10:23:08.570Z,24.50
2018-06-19T10:25:36.775Z,24.30
2018-06-19T10:28:05.023Z,24.20
2018-06-19T10:30:33.228Z,24.10
2018-06-19T10:33:01.918Z,24.10
2018-06-19T10:35:30.961Z,24.20
2018-06-19T10:37:59.446Z,24.90
2018-06-19T10:40:27.685Z,24.80
2018-06-19T10:42:55.915Z,25.40
2018-06-19T10:45:24.268Z,26.50
2018-06-19T10:47:52.759Z,27.90
2018-06-19T10:50:21.339Z,28.00
2018-06-19T10:52:50.127Z,26.90
2018-06-19T10:55:18.770Z,26.50
2018-06-19T10:57:47.015Z,26.20
2018-06-19T11:00:16.107Z,26.00
2018-06-19T11:02:44.785Z,25.80
2018-06-19T11:05:13.066Z,25.60
2018-06-19T11:07:42.082Z,25.10
2018-06-19T11:10:10.627Z,24.90
2018-06-19T11:12:38.851Z,24.80
2018-06-19T11:15:07.038Z,24.40
2018-06-19T11:17:35.703Z,24.50
2018-06-19T11:20:04.015Z,24.70
2018-06-19T11:22:32.175Z,26.40
2018-06-19T11:25:00.698Z,28.80
2018-06-19T11:27:29.599Z,30.20
2018-06-19T11:29:57.784Z,31.20
2018-06-19T11:34:54.791Z,31.80
2018-06-19T11:37:23.044Z,31.00
2018-06-19T11:39:51.295Z,31.60
2018-06-19T11:42:20.019Z,31.50
2018-06-19T11:44:48.317Z,31.90
2018-06-19T11:47:16.483Z,33.70
2018-06-19T11:49:44.731Z,34.40
2018-06-19T11:52:13.184Z,35.00
2018-06-19T11:54:41.454Z,34.60
2018-06-19T11:57:10.448Z,35.10
2018-06-19T11:59:38.654Z,36.60
2018-06-19T12:02:07.310Z,37.20
2018-06-19T12:04:36.131Z,36.20
2018-06-19T12:07:04.414Z,36.10
2018-06-19T12:09:33.213Z,36.60
2018-06-19T12:12:01.742Z,37.30
2018-06-19T12:14:30.267Z,37.40
2018-06-19T12:16:59.148Z,37.10
2018-06-19T12:19:27.753Z,36.70
2018-06-19T12:21:56.351Z,38.30
2018-06-19T12:24:25.030Z,36.40
2018-06-19T12:26:53.751Z,34.10
2018-06-19T12:29:23.536Z,32.70
2018-06-19T12:31:52.146Z,31.20
2018-06-19T12:34:20.378Z,30.00
2018-06-19T12:36:49.049Z,29.30
2018-06-19T12:39:17.703Z,29.20
2018-06-19T12:41:47.989Z,29.40
2018-06-19T12:44:16.427Z,29.60
2018-06-19T12:46:44.631Z,29.80
2018-06-19T12:49:13.265Z,32.00
2018-06-19T12:52:01.414Z,34.40
2018-06-19T12:56:43.342Z,34.60
2018-06-19T12:59:12.048Z,33.00
2018-06-19T13:01:41.507Z,31.40
2018-06-19T13:04:21.062Z,31.30
2018-06-19T13:06:49.261Z,30.90
2018-06-19T13:09:18.315Z,30.60
2018-06-19T13:11:46.850Z,30.60
2018-06-19T13:14:26.655Z,30.90
2018-06-19T13:17:06.370Z,30.80
2018-06-19T13:19:46.501Z,30.40
2018-06-19T13:22:14.996Z,30.30
2018-06-19T13:24:43.642Z,30.00
2018-06-19T13:27:11.844Z,29.50
2018-06-19T13:29:55.633Z,29.70
2018-06-19T13:32:25.358Z,29.30
2018-06-19T13:34:53.621Z,29.30
2018-06-19T13:37:22.857Z,29.60
2018-06-19T13:41:01.955Z,29.70
2018-06-19T13:43:42.619Z,29.90
2018-06-19T13:46:13.059Z,29.60
2018-06-19T13:48:42.797Z,28.80
2018-06-19T13:51:12.163Z,28.70
2018-06-19T13:53:42.199Z,29.00
2018-06-19T13:57:31.022Z,29.00
2018-06-19T14:00:01.266Z,29.00
2018-06-19T14:02:29.496Z,29.10
2018-06-19T14:04:58.334Z,29.10
2018-06-19T14:07:27.841Z,28.80
2018-06-19T14:10:08.037Z,28.60
2018-06-19T14:13:13.855Z,28.40
2018-06-19T14:15:45.954Z,28.30
2018-06-19T14:18:15.476Z,28.30
2018-06-19T14:20:44.224Z,28.40
2018-06-19T14:23:13.544Z,28.50
2018-06-19T14:25:42.159Z,28.40
2018-06-19T14:28:10.362Z,28.40
2018-06-19T14:30:38.607Z,28.30
2018-06-19T14:33:06.894Z,28.10
2018-06-19T14:35:35.081Z,27.90
2018-06-19T14:38:03.791Z,27.90
2018-06-19T14:40:32.488Z,27.90
2018-06-19T14:43:00.686Z,27.90
2018-06-19T14:45:29.643Z,27.80
2018-06-19T14:47:58.429Z,27.70
2018-06-19T14:50:27.436Z,27.50
2018-06-19T14:52:55.674Z,27.30
2018-06-19T14:55:24.178Z,27.30
2018-06-19T14:57:53.641Z,27.10
2018-06-19T15:00:22.234Z,27.10
2018-06-19T15:02:50.707Z,27.00
2018-06-19T15:05:19.187Z,26.80
2018-06-19T15:07:54.231Z,26.80
2018-06-19T15:10:23.154Z,26.80
2018-06-19T15:12:51.957Z,26.70
2018-06-19T15:15:20.670Z,26.60
2018-06-19T15:17:48.863Z,26.50
2018-06-19T15:20:17.534Z,26.50
2018-06-19T15:22:46.150Z,26.30
2018-06-19T15:25:14.383Z,26.30
2018-06-19T15:27:42.601Z,26.20
2018-06-19T15:30:10.841Z,26.30
2018-06-19T15:32:39.455Z,26.30
2018-06-19T15:35:07.671Z,26.20
2018-06-19T15:37:35.920Z,26.30
2018-06-19T15:40:04.770Z,26.30
2018-06-19T15:42:33.015Z,26.30
2018-06-19T15:45:01.696Z,26.20
2018-06-19T15:47:30.364Z,26.20
2018-06-19T15:49:58.835Z,26.20
2018-06-19T15:52:27.047Z,26.10
2018-06-19T15:54:55.243Z,26.00
2018-06-19T15:57:23.856Z,26.00
2018-06-19T15:59:52.088Z,25.90
2018-06-19T16:02:20.338Z,25.90
2018-06-19T16:04:48.980Z,25.80
2018-06-19T16:07:17.594Z,25.80
2018-06-19T16:09:45.803Z,25.70
2018-06-19T16:12:14.039Z,25.70
2018-06-19T16:14:42.293Z,25.70
2018-06-19T16:17:10.829Z,25.60
2018-06-19T16:19:39.264Z,25.60
2018-06-19T16:22:08.252Z,25.60
2018-06-19T16:24:36.811Z,25.50
2018-06-19T16:27:05.083Z,25.50
2018-06-19T16:32:02.099Z,25.50
2018-06-19T16:34:30.422Z,25.60
2018-06-19T16:36:59.144Z,25.50
2018-06-19T16:39:27.588Z,25.50
2018-06-19T16:41:55.992Z,25.50
2018-06-19T16:44:24.231Z,25.40
2018-06-19T16:46:52.826Z,25.40
2018-06-19T16:51:49.619Z,25.30
2018-06-19T16:54:18.075Z,25.30
2018-06-19T16:56:46.334Z,25.30
2018-06-19T16:59:14.851Z,25.20
2018-06-19T17:01:43.146Z,25.10
2018-06-19T17:04:11.650Z,25.20
2018-06-19T17:06:40.147Z,25.20
2018-06-19T17:09:08.676Z,25.20
2018-06-19T17:11:36.987Z,25.20
2018-06-19T17:14:05.296Z,25.10
2018-06-19T17:16:33.747Z,25.10
2018-06-19T17:19:02.014Z,25.00
2018-06-19T17:21:30.691Z,24.90
2018-06-19T17:23:59.227Z,24.90
2018-06-19T17:26:27.432Z,24.90
2018-06-19T17:28:55.730Z,24.90
2018-06-19T17:31:24.147Z,24.90
2018-06-19T17:33:52.774Z,24.90
2018-06-19T17:36:21.251Z,24.90
2018-06-19T17:38:50.307Z,24.80
2018-06-19T17:41:19.213Z,24.80
2018-06-19T17:46:16.099Z,24.80
2018-06-19T17:48:44.688Z,24.80
2018-06-19T17:51:13.058Z,24.80
2018-06-19T17:53:41.694Z,24.70
2018-06-19T17:56:13.515Z,24.70
2018-06-19T17:58:41.710Z,24.70
2018-06-19T18:01:09.982Z,24.70
2018-06-19T18:03:38.374Z,24.70
2018-06-19T18:06:06.699Z,24.60
2018-06-19T18:11:03.711Z,24.40
2018-06-19T18:13:32.473Z,24.40
2018-06-19T18:16:00.686Z,24.40
2018-06-19T18:18:28.921Z,24.40
2018-06-19T18:20:57.226Z,24.40
2018-06-19T18:23:25.688Z,24.40
2018-06-19T18:25:54.078Z,24.40
2018-06-19T18:28:22.853Z,24.30
2018-06-19T18:30:51.500Z,24.20
2018-06-19T18:33:20.147Z,24.10
2018-06-19T18:35:48.817Z,24.10
2018-06-19T18:38:17.458Z,24.10
2018-06-19T18:40:47.893Z,24.00
2018-06-19T18:43:16.615Z,23.90
2018-06-19T18:45:48.119Z,23.80
2018-06-19T18:48:16.854Z,23.80
2018-06-19T18:50:45.124Z,23.70
2018-06-19T18:53:13.387Z,23.70
2018-06-19T18:55:42.006Z,23.60
2018-06-19T18:58:10.255Z,23.60
2018-06-19T19:00:38.686Z,23.60
2018-06-19T19:03:07.397Z,23.60
2018-06-19T19:05:38.885Z,23.40
2018-06-19T19:08:07.879Z,23.50
2018-06-19T19:10:41.496Z,23.40
2018-06-19T19:13:09.874Z,23.40
2018-06-19T19:15:44.055Z,23.30
2018-06-19T19:18:23.259Z,23.30
2018-06-19T19:20:51.913Z,23.20
2018-06-19T19:23:21.216Z,23.20
2018-06-19T19:25:51.839Z,23.10
2018-06-19T19:28:25.727Z,23.10
2018-06-19T19:30:57.395Z,23.00
2018-06-19T19:33:25.679Z,23.00
2018-06-19T19:35:53.922Z,22.90
2018-06-19T19:38:27.699Z,22.80
2018-06-19T19:40:55.932Z,22.80
2018-06-19T19:43:24.166Z,22.70
2018-06-19T19:45:52.374Z,22.60
2018-06-19T19:48:26.401Z,22.50
2018-06-19T19:50:54.632Z,22.40
2018-06-19T19:53:23.546Z,22.30
2018-06-19T19:55:57.633Z,22.30
2018-06-19T19:58:31.775Z,22.20
2018-06-19T20:01:00.914Z,22.00
2018-06-19T20:03:30.443Z,21.90
2018-06-19T20:05:58.719Z,21.80
2018-06-19T20:08:27.607Z,21.80
2018-06-19T20:10:56.527Z,21.70
2018-06-19T20:13:25.082Z,21.60
2018-06-19T20:15:53.661Z,21.50
2018-06-19T20:18:21.894Z,21.50
2018-06-19T20:20:50.160Z,21.40
2018-06-19T20:23:18.580Z,21.40
2018-06-19T20:25:47.125Z,21.30
2018-06-19T20:28:15.698Z,21.20
2018-06-19T20:30:43.996Z,21.20
2018-06-19T20:33:12.623Z,21.10
2018-06-19T20:35:41.033Z,21.00
2018-06-19T20:38:09.845Z,20.90
2018-06-19T20:40:38.697Z,20.90
2018-06-19T20:43:06.998Z,20.80
2018-06-19T20:45:35.960Z,20.80
2018-06-19T20:48:04.814Z,20.70
2018-06-19T20:50:33.047Z,20.70
2018-06-19T20:55:29.977Z,20.60
2018-06-19T20:57:58.181Z,20.50
2018-06-19T21:00:26.359Z,20.50
2018-06-19T21:02:54.554Z,20.40
2018-06-19T21:05:23.178Z,20.40
2018-06-19T21:07:52.307Z,20.40
2018-06-19T21:10:20.877Z,20.30
2018-06-19T21:12:49.566Z,20.30
2018-06-19T21:15:17.782Z,20.30
2018-06-19T21:17:46.322Z,20.20
2018-06-19T21:20:14.513Z,20.30
2018-06-19T21:22:43.099Z,20.30
2018-06-19T21:25:11.400Z,20.20
2018-06-19T21:27:39.951Z,20.20
2018-06-19T21:30:08.827Z,20.30
2018-06-19T21:32:37.940Z,20.40
2018-06-19T21:35:06.838Z,20.40
2018-06-19T21:37:35.837Z,20.40
2018-06-19T21:40:04.216Z,20.30
2018-06-19T21:42:32.819Z,20.30
2018-06-19T21:45:01.418Z,20.30
2018-06-19T21:47:30.139Z,20.30
2018-06-19T21:49:58.746Z,20.30
2018-06-19T21:52:27.724Z,20.30
2018-06-19T21:54:56.068Z,20.30
2018-06-19T21:57:24.313Z,20.20
2018-06-19T21:59:53.090Z,20.20
2018-06-19T22:02:26.931Z,20.20
2018-06-19T22:04:55.691Z,20.20
2018-06-19T22:07:24.270Z,20.10
2018-06-19T22:09:52.831Z,20.10
2018-06-19T22:12:21.112Z,20.10
2018-06-19T22:14:50.030Z,20.00
2018-06-19T22:17:18.536Z,20.00
2018-06-19T22:19:47.370Z,20.00
2018-06-19T22:22:16.396Z,19.90
2018-06-19T22:24:44.901Z,19.90
2018-06-19T22:27:13.148Z,19.90
2018-06-19T22:29:42.265Z,19.80
2018-06-19T22:32:10.494Z,19.80
2018-06-19T22:34:39.071Z,19.80
2018-06-19T22:37:07.605Z,19.70
2018-06-19T22:39:36.242Z,19.70
2018-06-19T22:42:04.827Z,19.60
2018-06-19T22:44:33.103Z,19.60
2018-06-19T22:47:01.999Z,19.50
2018-06-19T22:49:30.704Z,19.50
2018-06-19T22:51:58.950Z,19.40
2018-06-19T22:54:27.829Z,19.40
2018-06-19T22:56:56.499Z,19.40
2018-06-19T22:59:25.170Z,19.40
2018-06-19T23:01:53.542Z,19.30
2018-06-19T23:04:21.775Z,19.20
2018-06-19T23:06:50.195Z,19.20
2018-06-19T23:09:18.745Z,19.20
2018-06-19T23:11:47.034Z,19.10
2018-06-19T23:16:43.323Z,19.10
2018-06-19T23:19:11.691Z,19.00
2018-06-19T23:21:45.742Z,19.00
2018-06-19T23:24:14.894Z,19.00
2018-06-19T23:26:43.426Z,19.00
2018-06-19T23:29:11.925Z,18.90
2018-06-19T23:31:40.554Z,18.90
2018-06-19T23:34:08.805Z,19.00
2018-06-19T23:36:37.686Z,18.90
2018-06-19T23:39:07.302Z,18.90
2018-06-19T23:41:35.990Z,18.80
2018-06-19T23:44:04.199Z,18.90
2018-06-19T23:46:32.821Z,18.90
2018-06-19T23:49:01.010Z,18.80
2018-06-19T23:51:29.882Z,18.80
2018-06-19T23:53:58.668Z,18.70
2018-06-19T23:56:26.878Z,18.70
2018-06-19T23:58:55.403Z,18.70
